Time;durP1;ratioP1;P1;durP2;ratioP2;P2;SDS_P1;SDS_P2;PMS_P1;PMS_P2;Temp;Humidity;BMP_temperature;BMP_pressure;BME280_temperature;BME280_humidity;BME280_pressure;Samples;Min_cycle;Max_cycle;Signal;HPM_P1;HPM_P2
2022/09/21 00:01:33;;;;;;;9.50;4.47;;;12.90;86.80;;;13.32;55.26;99486.53;4982194;28;114424;-71
2022/09/21 00:04:02;;;;;;;6.73;3.90;;;12.90;87.00;;;13.28;55.34;99480.81;4975145;28;114240;-72
2022/09/21 00:06:32;;;;;;;5.90;3.70;;;12.90;87.30;;;13.28;55.52;99480.81;4972083;28;124233;-71
2022/09/21 00:08:59;;;;;;;7.53;3.63;;;12.90;87.30;;;13.26;55.45;99489.44;4985712;28;123754;-71
2022/09/21 00:11:29;;;;;;;7.60;4.37;;;12.90;87.50;;;13.24;55.54;99486.16;4976049;28;113218;-71
2022/09/21 00:14:03;;;;;;;7.00;3.60;;;12.90;87.50;;;13.22;55.53;99484.81;4975919;28;113944;-71
2022/09/21 00:16:30;;;;;;;8.90;4.70;;;12.80;87.50;;;13.19;55.49;99479.88;4981160;28;124088;-71
2022/09/21 00:18:58;;;;;;;6.30;3.70;;;12.80;87.60;;;13.15;55.88;99476.91;4969255;28;124404;-71
2022/09/21 00:21:24;;;;;;;4.87;3.70;;;12.80;87.70;;;13.15;55.89;99490.78;4985620;28;113786;-71
2022/09/21 00:23:51;;;;;;;8.13;3.90;;;12.80;87.80;;;13.13;55.87;99489.44;4992502;28;113789;-71
2022/09/21 00:26:22;;;;;;;5.73;3.87;;;12.70;87.80;;;13.11;55.83;99488.94;4993785;28;123963;-71
2022/09/21 00:28:58;;;;;;;11.43;4.23;;;12.70;88.00;;;13.09;56.13;99486.50;4990578;28;123906;-71
2022/09/21 00:31:27;;;;;;;6.80;4.00;;;12.70;88.10;;;13.04;56.28;99483.81;4993007;28;115381;-71
2022/09/21 00:33:53;;;;;;;7.70;4.40;;;12.70;88.20;;;13.03;56.41;99484.97;4975038;28;114192;-71
2022/09/21 00:36:23;;;;;;;8.00;4.57;;;12.70;88.40;;;13.03;56.28;99479.44;4981418;28;124177;-71
2022/09/21 00:39:00;;;;;;;6.70;3.80;;;12.60;88.50;;;13.02;56.19;99481.34;4988865;28;123508;-71
2022/09/21 00:41:30;;;;;;;5.40;3.90;;;12.70;88.70;;;12.99;56.68;99479.22;4990535;28;114154;-71
2022/09/21 00:44:20;;;;;;;7.97;4.30;;;12.60;88.70;;;12.97;56.16;99486.19;4972035;28;113474;-71
2022/09/21 00:46:50;;;;;;;7.83;4.43;;;12.50;88.80;;;12.93;56.63;99479.66;4986581;28;124061;-71
2022/09/21 00:49:17;;;;;;;8.43;4.13;;;12.50;88.80;;;12.89;56.42;99479.44;4975524;28;124010;-72
2022/09/21 00:51:45;;;;;;;5.30;3.33;;;12.50;88.90;;;12.88;56.41;99482.53;4982001;28;114228;-71
2022/09/21 00:54:18;;;;;;;5.70;3.60;;;12.50;89.00;;;12.86;56.54;99479.25;4988848;28;114094;-72
2022/09/21 00:56:46;;;;;;;5.53;3.77;;;12.40;89.00;;;12.83;56.64;99478.72;4982723;28;124658;-71
2022/09/21 00:59:15;;;;;;;6.07;3.37;;;12.40;89.10;;;12.83;56.45;99469.59;4988630;28;123826;-71
2022/09/21 01:01:42;;;;;;;4.97;3.27;;;12.40;89.10;;;12.81;56.99;99483.78;4964474;28;112554;-71
2022/09/21 01:04:10;;;;;;;5.63;2.97;;;12.40;89.10;;;12.81;56.62;99485.72;4979177;28;113998;-72
2022/09/21 01:06:38;;;;;;;6.40;3.67;;;12.40;89.20;;;12.80;56.67;99486.84;4988102;28;124048;-71
2022/09/21 01:09:05;;;;;;;4.80;3.47;;;12.40;89.20;;;12.79;56.61;99479.69;4988634;28;123614;-74
2022/09/21 01:12:01;;;;;;;6.10;3.30;;;12.40;89.30;;;12.77;56.52;99474.44;4977655;28;114283;-71
2022/09/21 01:14:33;;;;;;;6.60;3.43;;;12.40;89.20;;;12.73;56.27;99486.44;4983140;28;114052;-71
2022/09/21 01:17:17;;;;;;;5.23;2.90;;;12.40;89.20;;;12.72;56.60;99479.25;4978174;28;124508;-71
2022/09/21 01:19:49;;;;;;;3.93;2.90;;;12.30;89.20;;;12.70;56.77;99476.78;4988116;28;124290;-71
2022/09/21 01:23:13;;;;;;;6.70;3.70;;;12.30;89.30;;;12.65;56.48;99479.66;4985386;28;115079;-71
2022/09/21 01:26:40;;;;;;;4.80;2.70;;;12.30;89.30;;;12.60;56.97;99474.25;4971596;28;115010;-71
2022/09/21 01:29:40;;;;;;;6.23;3.30;;;12.20;89.30;;;12.57;56.66;99480.38;4973640;28;123251;-72
2022/09/21 01:32:21;;;;;;;3.53;2.87;;;12.20;89.30;;;12.55;56.80;99486.25;4975921;28;122858;-71
2022/09/21 01:34:58;;;;;;;5.93;2.83;;;12.50;89.60;;;12.55;56.83;99491.81;4985374;28;114354;-72
2022/09/21 01:37:43;;;;;;;4.40;2.50;;;12.20;89.30;;;12.54;56.74;99494.88;4975207;28;112391;-71
2022/09/21 01:40:21;;;;;;;4.00;2.73;;;12.10;89.30;;;12.52;56.81;99494.34;4980645;28;123638;-72
2022/09/21 01:42:50;;;;;;;5.93;2.97;;;12.10;89.30;;;12.48;56.88;99487.78;4988160;28;124757;-71
2022/09/21 01:45:23;;;;;;;3.70;2.87;;;12.10;89.30;;;12.47;56.82;99494.47;4979131;28;114195;-70
2022/09/21 01:47:51;;;;;;;5.53;2.90;;;12.10;89.30;;;12.45;56.55;99503.09;4978644;28;113026;-70
2022/09/21 01:50:19;;;;;;;3.60;2.43;;;12.00;89.20;;;12.42;56.84;99498.16;4988337;28;123775;-71
2022/09/21 01:52:56;;;;;;;12.23;2.90;;;12.00;89.10;;;12.40;56.46;99505.16;4986662;28;123478;-71
2022/09/21 01:55:28;;;;;;;4.37;2.70;;;12.20;89.30;;;12.37;56.69;99499.09;4988726;28;114331;-71
2022/09/21 01:57:59;;;;;;;5.90;3.03;;;12.00;89.20;;;12.36;56.39;99503.00;4984627;28;113815;-71
2022/09/21 02:00:29;;;;;;;4.10;2.87;;;11.90;89.10;;;12.34;56.51;99491.38;4983472;28;123303;-71
2022/09/21 02:03:20;;;;;;;5.20;3.17;;;11.90;89.10;;;12.32;56.54;99499.19;4982820;28;123714;-71
2022/09/21 02:05:47;;;;;;;4.07;2.77;;;11.90;89.30;;;12.29;56.47;99498.97;4975646;28;114505;-71
2022/09/21 02:08:13;;;;;;;4.57;2.80;;;12.50;89.90;;;12.29;56.99;99499.78;4973678;28;114455;-71
2022/09/21 02:10:51;;;;;;;3.43;2.47;;;11.80;89.30;;;12.27;56.42;99499.28;4966371;28;123519;-71
2022/09/21 02:13:55;;;;;;;4.00;2.90;;;11.90;89.40;;;12.24;56.87;99496.31;4975267;28;123801;-71
2022/09/21 02:16:55;;;;;;;6.17;3.10;;;11.80;89.40;;;12.20;57.04;99501.66;4970343;28;114751;-72
2022/09/21 02:19:39;;;;;;;3.37;2.60;;;11.80;89.60;;;12.17;57.26;99496.72;4986388;28;115077;-71
2022/09/21 02:22:28;;;;;;;7.00;4.07;;;11.80;89.70;;;12.15;56.99;99497.00;4988753;28;124289;-71
2022/09/21 02:25:13;;;;;;;6.23;2.90;;;11.80;90.00;;;12.14;57.51;99492.63;4991578;28;124278;-72
2022/09/21 02:27:53;;;;;;;5.37;3.50;;;11.80;90.00;;;12.10;57.43;99491.56;4971012;28;113238;-71
2022/09/21 02:30:25;;;;;;;6.27;3.50;;;11.70;90.00;;;12.11;57.21;99492.38;4973179;28;113929;-72
2022/09/21 02:32:54;;;;;;;10.47;3.50;;;11.70;90.00;;;12.08;57.47;99488.28;4973913;28;124704;-72
2022/09/21 02:35:36;;;;;;;6.83;3.47;;;11.70;90.00;;;12.08;57.59;99487.47;4988261;28;123914;-71
2022/09/21 02:38:36;;;;;;;8.23;3.40;;;11.70;90.10;;;12.05;57.47;99491.66;4975217;28;114369;-71
2022/09/21 02:41:25;;;;;;;6.27;3.37;;;11.70;90.10;;;12.04;57.70;99490.03;4987644;28;114871;-72
2022/09/21 02:44:05;;;;;;;7.70;4.47;;;11.60;90.10;;;12.02;57.64;99497.00;4981876;28;123964;-71
2022/09/21 02:46:42;;;;;;;7.50;3.77;;;11.60;90.10;;;12.01;57.78;99489.78;4981653;28;123806;-72
2022/09/21 02:49:19;;;;;;;6.50;3.27;;;11.80;90.20;;;11.99;57.88;99486.53;4983323;28;114487;-71
2022/09/21 02:51:50;;;;;;;6.10;3.10;;;11.60;90.20;;;11.98;58.07;99490.41;4989142;28;113912;-71
2022/09/21 02:54:21;;;;;;;6.63;3.10;;;11.60;90.20;;;11.97;57.60;99497.09;4986967;28;123970;-71
2022/09/21 02:56:50;;;;;;;5.40;3.10;;;11.50;90.20;;;11.94;57.93;99493.78;4985245;28;123551;-71
2022/09/21 02:59:17;;;;;;;6.47;3.10;;;11.50;90.20;;;11.93;57.54;99492.16;4987245;28;114335;-71
2022/09/21 03:01:44;;;;;;;5.30;3.17;;;11.70;90.30;;;11.93;57.64;99485.81;4984354;28;114001;-71
2022/09/21 03:04:10;;;;;;;5.70;3.10;;;11.50;90.20;;;11.90;57.73;99495.53;4984216;28;123773;-71
2022/09/21 03:06:37;;;;;;;5.93;2.73;;;13.00;90.80;;;11.87;57.22;99487.81;4978150;28;123829;-71
2022/09/21 03:09:04;;;;;;;4.00;2.80;;;11.40;90.10;;;11.84;57.62;99476.50;4979065;28;115217;-71
2022/09/21 03:11:30;;;;;;;3.73;2.50;;;11.40;90.10;;;11.82;57.55;99479.59;4976434;28;114639;-71
2022/09/21 03:13:58;;;;;;;3.47;2.50;;;11.70;90.30;;;11.80;57.79;99487.38;4983085;28;124084;-71
2022/09/21 03:16:24;;;;;;;3.07;2.50;;;11.40;90.10;;;11.79;57.50;99488.50;4986428;28;123775;-71
2022/09/21 03:18:52;;;;;;;2.50;2.27;;;11.30;90.10;;;11.79;57.36;99485.72;4969905;28;113645;-71
2022/09/21 03:21:18;;;;;;;4.87;2.90;;;11.80;90.30;;;11.79;57.16;99490.44;4982468;28;114160;-72
2022/09/21 03:23:45;;;;;;;3.40;2.90;;;11.40;90.10;;;11.78;57.37;99486.84;4984640;28;124013;-71
2022/09/21 03:26:12;;;;;;;3.33;2.50;;;11.30;90.10;;;11.80;57.53;99487.38;4973571;28;123843;-71
2022/09/21 03:28:39;;;;;;;6.40;2.93;;;11.30;90.10;;;11.79;57.40;99488.50;4969601;28;113030;-71
2022/09/21 03:31:05;;;;;;;3.63;2.47;;;11.30;90.10;;;11.80;57.34;99492.91;4976732;28;113923;-72
2022/09/21 03:33:32;;;;;;;4.50;2.60;;;11.40;90.20;;;11.81;57.50;99493.72;4973201;28;124164;-71
2022/09/21 03:35:58;;;;;;;5.63;3.20;;;11.30;90.20;;;11.79;57.40;99495.97;4988176;28;123916;-71
2022/09/21 03:38:25;;;;;;;3.70;2.57;;;11.30;90.20;;;11.79;57.21;99504.28;4977161;28;114163;-71
2022/09/21 03:40:57;;;;;;;4.00;2.50;;;11.40;90.20;;;11.77;57.36;99498.22;4988224;28;113841;-71
2022/09/21 03:43:24;;;;;;;3.70;2.53;;;11.30;90.20;;;11.76;57.86;99497.41;4982846;28;123765;-71
2022/09/21 03:45:51;;;;;;;5.67;2.47;;;11.30;90.20;;;11.73;57.41;99493.28;4986335;28;123832;-71
2022/09/21 03:48:18;;;;;;;4.93;2.80;;;11.30;90.10;;;11.73;57.53;99498.00;4986998;28;114333;-71
2022/09/21 03:50:44;;;;;;;4.53;2.80;;;11.30;90.10;;;11.72;57.45;99501.91;4987089;28;114087;-72
2022/09/21 03:53:11;;;;;;;4.60;2.53;;;11.30;90.10;;;11.71;57.34;99505.78;4982287;28;124101;-72
2022/09/21 03:55:38;;;;;;;4.50;3.30;;;11.30;90.20;;;11.69;57.54;99497.00;4985241;28;123891;-73
2022/09/21 03:58:04;;;;;;;3.57;2.80;;;11.40;90.20;;;11.69;57.27;99510.84;4988390;28;114735;-72
2022/09/21 04:00:32;;;;;;;4.37;3.30;;;11.30;90.20;;;11.68;57.29;99509.16;4961946;28;113938;-72
2022/09/21 04:02:58;;;;;;;5.03;3.27;;;11.20;90.20;;;11.63;57.79;99509.25;4969907;28;123914;-71
2022/09/21 04:05:26;;;;;;;4.77;3.00;;;10.90;90.30;;;11.58;57.98;99507.41;5001916;28;123885;-72
2022/09/21 04:07:54;;;;;;;12.23;4.53;;;11.10;90.20;;;11.56;57.89;99508.84;4986762;28;114169;-71
2022/09/21 04:10:25;;;;;;;4.37;3.53;;;11.10;90.30;;;11.52;58.38;99513.31;4977772;28;114100;-71
2022/09/21 04:12:56;;;;;;;8.00;4.80;;;11.10;90.30;;;11.49;58.22;99507.25;4981413;28;124100;-74
2022/09/21 04:15:23;;;;;;;5.53;4.13;;;11.00;90.40;;;11.43;58.04;99511.22;4986199;28;123068;-72
2022/09/21 04:17:51;;;;;;;7.20;4.57;;;11.00;90.50;;;11.38;58.33;99508.53;4974401;28;114461;-72
2022/09/21 04:20:20;;;;;;;10.27;4.30;;;10.90;90.50;;;11.35;58.74;99513.88;4984366;28;114055;-72
2022/09/21 04:22:46;;;;;;;8.47;4.60;;;10.90;90.60;;;11.34;58.88;99524.09;4986834;28;124479;-72
2022/09/21 04:25:14;;;;;;;7.57;4.87;;;10.90;90.70;;;11.31;58.72;99519.19;4974884;28;123778;-72
2022/09/21 04:27:42;;;;;;;7.13;4.30;;;10.90;90.70;;;11.29;58.56;99526.94;4978724;28;114175;-72
2022/09/21 04:30:12;;;;;;;7.13;4.27;;;10.80;90.70;;;11.28;58.58;99522.53;4979317;28;114063;-72
2022/09/21 04:32:39;;;;;;;8.40;4.60;;;10.80;90.70;;;11.27;58.54;99529.19;4976885;28;124095;-71
2022/09/21 04:35:06;;;;;;;9.00;4.43;;;11.00;90.80;;;11.26;58.91;99528.38;4985414;28;123948;-71
2022/09/21 04:37:33;;;;;;;5.53;4.50;;;10.80;90.70;;;11.25;58.50;99520.34;4987421;28;114133;-71
2022/09/21 04:39:59;;;;;;;9.03;4.37;;;10.80;90.70;;;11.26;58.66;99533.09;4987718;28;114112;-71
2022/09/21 04:42:26;;;;;;;16.40;4.87;;;10.90;90.80;;;11.25;58.80;99526.72;4988734;28;124050;-71
2022/09/21 04:44:52;;;;;;;9.70;4.73;;;10.80;90.80;;;11.24;58.79;99524.25;4984452;28;124070;-71
2022/09/21 04:47:22;;;;;;;7.93;4.60;;;10.80;90.80;;;11.24;58.67;99521.50;4976296;28;115214;-71
2022/09/21 04:49:49;;;;;;;6.00;4.13;;;10.80;90.80;;;11.23;58.85;99528.97;4983626;28;114408;-71
2022/09/21 04:52:15;;;;;;;7.73;4.03;;;11.70;91.20;;;11.22;59.05;99532.03;4987939;28;124037;-71
2022/09/21 04:54:42;;;;;;;7.80;5.00;;;11.70;91.20;;;11.21;58.68;99530.38;4976887;28;123895;-71
2022/09/21 04:57:08;;;;;;;10.80;4.87;;;10.80;90.90;;;11.21;58.88;99533.16;4978787;28;114281;-71
2022/09/21 04:59:35;;;;;;;7.27;4.40;;;10.80;90.90;;;11.21;58.69;99542.28;4969821;28;114203;-72
2022/09/21 05:02:01;;;;;;;8.67;4.30;;;10.80;90.90;;;11.20;58.90;99539.78;4966389;28;122897;-72
2022/09/21 05:04:28;;;;;;;8.83;5.33;;;11.40;91.20;;;11.19;59.00;99533.44;4978321;28;123890;-72
2022/09/21 05:06:57;;;;;;;6.20;3.97;;;10.70;90.90;;;11.17;59.06;99540.38;4969770;28;113182;-72
2022/09/21 05:12:08;;;;;;;9.63;5.70;;;10.80;91.00;;;11.10;58.94;99546.31;4979818;28;124620;-71
2022/09/21 05:14:35;;;;;;;5.73;4.03;;;10.60;90.90;;;11.09;58.92;99539.09;4980438;28;122827;-72
2022/09/21 05:17:02;;;;;;;7.50;3.93;;;10.60;91.00;;;11.10;58.95;99545.50;4979296;28;114399;-72
2022/09/21 05:19:30;;;;;;;7.67;4.17;;;10.70;91.10;;;11.10;59.38;99548.25;4977602;28;113700;-72
2022/09/21 05:21:57;;;;;;;7.20;4.60;;;10.60;91.00;;;11.11;59.31;99549.88;4974460;28;124400;-72
2022/09/21 05:24:23;;;;;;;12.27;4.93;;;10.60;91.10;;;11.14;59.26;99546.53;4975526;28;122872;-73
2022/09/21 05:26:50;;;;;;;6.70;4.00;;;10.70;91.20;;;11.16;59.14;99538.75;4978446;28;114415;-72
2022/09/21 05:29:16;;;;;;;6.97;4.23;;;10.60;91.20;;;11.17;59.57;99545.91;4965200;28;113104;-72
2022/09/21 05:32:02;;;;;;;7.63;3.67;;;10.70;91.30;;;11.23;59.66;99544.72;4977101;28;123683;-72
2022/09/21 05:35:11;;;;;;;8.90;4.00;;;10.70;91.40;;;11.30;60.16;99549.91;4962499;28;122721;-72
2022/09/21 05:38:18;;;;;;;7.73;3.90;;;10.70;91.70;;;11.37;59.64;99551.19;4991389;28;114662;-72
2022/09/21 05:40:49;;;;;;;8.53;4.60;;;10.80;91.80;;;11.43;59.49;99546.38;4955879;28;113821;-71
2022/09/21 05:43:16;;;;;;;5.60;3.50;;;10.80;91.80;;;11.47;59.80;99548.25;4972959;28;124072;-79
2022/09/21 05:45:55;;;;;;;5.87;3.70;;;10.90;91.70;;;11.54;59.05;99549.81;4973675;28;123708;-72
2022/09/21 05:48:55;;;;;;;10.87;4.23;;;10.90;91.60;;;11.55;58.82;99551.44;4968638;28;114534;-72
2022/09/21 05:51:35;;;;;;;7.70;3.73;;;11.00;91.50;;;11.58;58.54;99550.84;4977167;28;113170;-72
2022/09/21 05:54:30;;;;;;;6.03;3.93;;;11.00;91.30;;;11.60;58.77;99551.38;4972921;28;124526;-71
2022/09/21 05:57:23;;;;;;;8.57;3.93;;;11.00;91.20;;;11.62;58.10;99557.44;4975894;28;123777;-72
2022/09/21 06:00:21;;;;;;;5.67;4.27;;;11.10;91.10;;;11.63;58.41;99553.53;4967871;28;114139;-71
2022/09/21 06:03:26;;;;;;;7.47;4.47;;;11.10;91.00;;;11.63;57.96;99559.06;4972364;28;113631;-71
2022/09/21 06:05:53;;;;;;;4.90;4.00;;;11.10;90.90;;;11.66;58.15;99561.22;4974951;28;124127;-71
2022/09/21 06:08:20;;;;;;;7.77;4.47;;;11.10;90.90;;;11.74;58.03;99566.13;4975883;28;124658;-71
2022/09/21 06:10:47;;;;;;;5.40;4.10;;;11.20;90.90;;;11.82;57.79;99565.44;4985619;28;114243;-71
2022/09/21 06:13:14;;;;;;;5.10;3.80;;;11.20;90.80;;;11.92;57.33;99562.50;4978642;28;114308;-71
2022/09/21 06:15:41;;;;;;;11.30;5.00;;;11.30;90.80;;;12.02;57.76;99569.00;4979302;28;124049;-71
2022/09/21 06:18:08;;;;;;;7.13;4.40;;;11.40;90.70;;;12.09;56.91;99561.09;4985521;28;124040;-72
2022/09/21 06:20:35;;;;;;;4.80;3.60;;;11.40;90.60;;;12.18;56.90;99575.91;4957826;28;113417;-72
2022/09/21 06:23:08;;;;;;;7.63;4.50;;;11.50;90.50;;;12.23;56.88;99577.78;4958030;28;113487;-72
2022/09/21 06:25:35;;;;;;;5.80;4.50;;;11.60;90.50;;;12.28;56.65;99581.28;4975710;28;125071;-72
2022/09/21 06:28:08;;;;;;;8.17;5.00;;;11.90;90.50;;;12.34;56.70;99582.84;4980474;28;123756;-72
2022/09/21 06:30:36;;;;;;;8.80;4.80;;;11.70;90.30;;;12.39;56.65;99581.94;4975152;28;114301;-73
2022/09/21 06:33:05;;;;;;;7.87;5.30;;;11.70;90.30;;;12.43;56.49;99579.34;4970480;28;115019;-72
2022/09/21 06:35:34;;;;;;;8.17;4.57;;;14.10;91.20;;;12.44;55.98;99578.22;4960163;28;124682;-73
2022/09/21 06:38:06;;;;;;;7.83;4.60;;;11.80;90.20;;;12.46;56.05;99575.97;4971114;28;124893;-72
2022/09/21 06:40:36;;;;;;;12.73;5.47;;;11.80;90.10;;;12.50;56.14;99582.56;4974555;28;114081;-72
2022/09/21 06:43:04;;;;;;;14.57;6.00;;;11.90;90.20;;;12.54;56.45;99583.56;4965778;28;114648;-71
2022/09/21 06:45:30;;;;;;;9.20;4.80;;;11.90;90.10;;;12.60;56.02;99568.50;4980449;28;123566;-74
2022/09/21 06:47:57;;;;;;;12.10;5.00;;;11.90;90.10;;;12.66;56.15;99577.53;4968961;28;124140;-71
2022/09/21 06:50:24;;;;;;;12.17;6.20;;;12.00;90.10;;;12.72;55.85;99574.34;4971572;28;113904;-70
2022/09/21 06:52:50;;;;;;;7.40;5.37;;;12.10;90.10;;;12.78;55.93;99584.19;4970406;28;114095;-73
2022/09/21 06:55:17;;;;;;;7.37;4.80;;;12.10;90.00;;;12.83;55.53;99574.97;4975741;28;124059;-72
2022/09/21 06:57:44;;;;;;;12.93;6.73;;;12.20;90.00;;;12.90;55.74;99572.63;4967898;28;122719;-72
2022/09/21 07:00:12;;;;;;;8.30;5.57;;;12.50;90.00;;;12.96;55.35;99578.88;4979051;28;113808;-72
2022/09/21 07:02:44;;;;;;;6.90;4.90;;;12.30;89.90;;;12.98;55.08;99582.16;4973481;28;113547;-73
2022/09/21 07:05:11;;;;;;;13.33;6.00;;;12.30;89.60;;;12.96;54.75;99574.13;4977742;28;124234;-73
2022/09/21 07:07:39;;;;;;;13.10;5.70;;;9.50;87.70;;;12.94;55.07;99581.13;4966551;28;123558;-73
2022/09/21 07:10:07;;;;;;;9.47;4.93;;;12.20;89.40;;;12.96;54.97;99574.13;4972699;28;114180;-74
2022/09/21 07:12:34;;;;;;;8.00;4.93;;;12.30;89.50;;;13.02;54.82;99574.84;4976703;28;114455;-75
2022/09/21 07:15:02;;;;;;;10.23;4.90;;;12.40;89.50;;;13.04;54.71;99569.81;4986553;28;124236;-74
2022/09/21 07:17:35;;;;;;;7.93;4.53;;;12.40;89.30;;;13.09;55.00;99572.50;4986122;28;123178;-74
2022/09/21 07:20:03;;;;;;;6.90;4.70;;;12.40;89.30;;;13.14;54.80;99566.84;4982698;28;116111;-75
2022/09/21 07:22:31;;;;;;;7.17;3.90;;;12.50;89.30;;;13.22;54.83;99573.63;4988610;28;114676;-74
2022/09/21 07:24:58;;;;;;;12.27;5.23;;;12.60;89.20;;;13.28;54.64;99577.94;4972240;28;124514;-76
2022/09/21 07:27:29;;;;;;;8.27;5.40;;;12.60;89.10;;;13.34;54.45;99570.31;4985073;28;123882;-73
2022/09/21 07:29:56;;;;;;;5.73;4.27;;;12.60;88.90;;;13.40;54.60;99580.97;4979013;28;114199;-78
2022/09/21 07:32:22;;;;;;;7.73;4.90;;;12.80;89.00;;;13.48;54.03;99568.31;4988011;28;113610;-78
2022/09/21 07:34:49;;;;;;;8.43;4.93;;;12.80;88.80;;;13.55;54.08;99579.00;4987200;28;124059;-77
2022/09/21 07:37:15;;;;;;;10.87;5.83;;;12.80;88.60;;;13.61;53.99;99578.56;4982959;28;123733;-75
2022/09/21 07:39:42;;;;;;;10.30;5.20;;;12.90;88.60;;;13.66;53.75;99575.66;4973517;28;114221;-75
2022/09/21 07:42:08;;;;;;;10.80;4.37;;;13.00;88.60;;;13.70;53.90;99576.69;4990276;28;114031;-74
2022/09/21 07:44:34;;;;;;;11.60;5.67;;;13.10;88.40;;;13.77;53.86;99572.66;4974022;28;124935;-74
2022/09/21 07:47:02;;;;;;;8.43;4.20;;;13.00;88.20;;;13.81;53.66;99574.50;4987999;28;123880;-76
2022/09/21 07:49:28;;;;;;;12.40;5.40;;;13.10;88.10;;;13.87;53.60;99580.75;4988016;28;114191;-74
2022/09/21 07:51:56;;;;;;;7.13;4.13;;;13.20;88.10;;;13.91;53.32;99573.41;4987462;28;114536;-73
2022/09/21 07:54:22;;;;;;;10.13;4.40;;;13.20;88.00;;;13.96;53.35;99578.03;4985467;28;124119;-75
2022/09/21 07:59:33;;;;;;;10.07;5.43;;;13.30;88.00;;;13.99;53.21;99580.16;4978054;28;114660;-73
2022/09/21 08:02:00;;;;;;;8.40;4.67;;;14.00;88.40;;;13.95;53.36;99574.44;4983875;28;114009;-73
2022/09/21 08:04:26;;;;;;;12.43;5.13;;;13.30;87.80;;;13.98;53.47;99579.34;4978337;28;123732;-75
2022/09/21 08:06:53;;;;;;;7.20;4.20;;;13.30;87.80;;;14.03;53.26;99578.41;4986601;28;123908;-75
2022/09/21 08:09:19;;;;;;;8.30;5.30;;;13.30;87.80;;;14.04;53.17;99578.06;4970044;28;115416;-75
2022/09/21 08:11:46;;;;;;;10.23;5.70;;;13.30;87.70;;;14.05;53.41;99581.66;4967353;28;115077;-76
2022/09/21 08:14:18;;;;;;;9.67;6.83;;;13.30;87.70;;;14.07;53.48;99568.28;4983089;28;124485;-77
2022/09/21 08:16:46;;;;;;;14.17;5.43;;;13.40;87.90;;;14.12;53.46;99570.94;4980422;28;124004;-75
2022/09/21 08:19:14;;;;;;;10.77;5.77;;;13.40;88.00;;;14.19;53.38;99574.09;4976305;28;114347;-72
2022/09/21 08:21:41;;;;;;;6.57;4.80;;;13.50;88.10;;;14.30;53.39;99583.81;4973679;28;112437;-74
2022/09/21 08:24:08;;;;;;;7.80;4.50;;;13.60;88.10;;;14.39;53.26;99571.91;4986582;28;124990;-72
2022/09/21 08:26:35;;;;;;;6.03;4.53;;;13.70;87.90;;;14.44;53.04;99572.59;4975996;28;123865;-73
2022/09/21 08:29:02;;;;;;;13.50;4.60;;;13.70;87.60;;;14.47;52.89;99577.53;4984429;28;113289;-78
2022/09/21 08:31:29;;;;;;;7.03;4.33;;;13.80;87.40;;;14.52;52.93;99585.75;4984753;28;113898;-74
2022/09/21 08:33:56;;;;;;;6.80;4.00;;;13.90;87.40;;;14.55;52.62;99568.44;4980672;28;124176;-75
2022/09/21 08:36:23;;;;;;;8.33;3.87;;;14.60;87.80;;;14.57;52.54;99576.47;4974951;28;124387;-73
2022/09/21 08:38:50;;;;;;;9.00;4.13;;;13.90;87.00;;;14.56;52.45;99578.44;4984745;28;114306;-74
2022/09/21 08:41:41;;;;;;;6.50;3.47;;;13.80;86.70;;;14.56;52.56;99570.09;4988123;28;113587;-74
2022/09/21 08:44:29;;;;;;;8.30;3.50;;;13.90;86.90;;;14.57;52.25;99568.94;4984039;28;124657;-74
2022/09/21 08:47:21;;;;;;;7.13;3.60;;;14.00;86.90;;;14.63;52.71;99580.75;4991270;28;125337;-74
2022/09/21 08:49:56;;;;;;;8.10;3.93;;;13.90;86.80;;;14.67;52.33;99576.19;4992109;28;114320;-72
2022/09/21 08:52:25;;;;;;;6.20;3.77;;;14.00;86.80;;;14.69;52.41;99573.06;4988548;28;114233;-72
2022/09/21 08:54:58;;;;;;;7.40;3.27;;;14.10;86.80;;;14.73;52.28;99579.66;4989570;28;123951;-73
2022/09/21 08:57:32;;;;;;;6.57;3.40;;;14.10;86.80;;;14.80;52.50;99577.19;4972252;28;124225;-72
2022/09/21 09:00:00;;;;;;;7.47;4.20;;;14.10;86.90;;;14.87;52.52;99574.78;4970115;28;115074;-73
2022/09/21 09:02:42;;;;;;;5.73;3.80;;;14.20;86.80;;;14.91;52.16;99561.88;4983426;28;115179;-72
2022/09/21 09:05:29;;;;;;;5.37;3.23;;;14.20;86.70;;;14.95;52.34;99564.81;4981390;28;124218;-72
2022/09/21 09:08:18;;;;;;;4.97;3.00;;;14.30;86.70;;;14.97;51.99;99563.38;4982909;28;124955;-73
2022/09/21 09:11:10;;;;;;;5.60;3.40;;;14.30;86.40;;;15.01;52.07;99564.34;4991946;28;114371;-73
2022/09/21 09:14:06;;;;;;;6.00;3.40;;;14.40;86.50;;;15.09;51.94;99559.13;4977326;28;113625;-73
2022/09/21 09:17:13;;;;;;;6.17;2.90;;;14.40;86.30;;;15.14;51.81;99561.75;4978563;28;124056;-73
2022/09/21 09:19:49;;;;;;;3.10;2.67;;;14.50;86.00;;;15.19;51.85;99561.63;4974648;28;123842;-74
2022/09/21 09:22:24;;;;;;;6.60;2.70;;;14.50;86.00;;;15.23;51.54;99551.44;4972245;28;114020;-75
2022/09/21 09:24:54;;;;;;;5.50;2.57;;;14.60;85.80;;;15.22;51.48;99559.00;4984257;28;114522;-73
2022/09/21 09:27:30;;;;;;;4.30;2.50;;;15.00;85.90;;;15.22;51.37;99539.50;4967475;28;123028;-72
2022/09/21 09:30:18;;;;;;;5.03;2.50;;;14.60;85.60;;;15.25;51.53;99546.38;4984351;28;123896;-72
2022/09/21 09:33:07;;;;;;;4.97;2.93;;;14.60;85.60;;;15.29;51.46;99544.59;4986525;28;114344;-74
2022/09/21 09:36:03;;;;;;;7.10;2.17;;;14.70;85.60;;;15.31;51.49;99547.03;4983884;28;114394;-75
2022/09/21 09:38:36;;;;;;;4.73;2.40;;;14.70;85.40;;;15.35;51.35;99546.06;4982664;28;123540;-72
2022/09/21 09:41:45;;;;;;;7.87;3.40;;;14.80;85.40;;;15.41;51.36;99541.97;4983626;28;124333;-72
2022/09/21 09:44:53;;;;;;;4.50;2.73;;;14.80;85.30;;;15.49;51.13;99537.56;4982185;28;114380;-74
2022/09/21 09:47:25;;;;;;;3.60;2.43;;;16.10;86.30;;;15.54;50.83;99542.97;4978919;28;113677;-75
2022/09/21 09:50:04;;;;;;;4.33;1.73;;;14.90;84.70;;;15.60;50.50;99535.28;4986504;28;124595;-74
2022/09/21 09:52:32;;;;;;;1.63;1.40;;;15.00;84.60;;;15.64;50.48;99537.09;4982955;28;124228;-73
2022/09/21 09:55:05;;;;;;;6.13;2.00;;;15.00;84.40;;;15.69;49.99;99533.34;4985123;28;115745;-71
2022/09/21 09:57:32;;;;;;;2.47;1.70;;;15.10;84.30;;;15.73;49.92;99533.50;4987302;28;115140;-74
2022/09/21 10:00:10;;;;;;;3.60;2.30;;;15.20;83.80;;;15.76;49.70;99528.09;4974518;28;123987;-74
2022/09/21 10:02:53;;;;;;;5.77;2.80;;;15.20;83.40;;;15.82;49.77;99528.72;4974436;28;124083;-74
2022/09/21 10:05:37;;;;;;;4.37;1.93;;;15.20;83.20;;;15.89;49.61;99527.09;4980915;28;114279;-75
2022/09/21 10:08:03;;;;;;;4.40;2.30;;;15.30;83.30;;;15.98;49.35;99517.88;4981402;28;113715;-72
2022/09/21 10:10:39;;;;;;;4.50;2.43;;;15.40;83.20;;;16.05;48.93;99516.25;4981065;28;124053;-73
2022/09/21 10:13:29;;;;;;;4.87;2.90;;;14.70;81.90;;;16.13;48.49;99517.38;4970461;28;122763;-72
2022/09/21 10:16:32;;;;;;;2.73;1.97;;;15.50;82.00;;;16.18;48.20;99511.63;4986378;28;116545;-72
2022/09/21 10:19:00;;;;;;;5.90;2.33;;;15.50;81.50;;;16.30;48.15;99510.91;4973291;28;114049;-72
2022/09/21 10:21:34;;;;;;;2.57;1.80;;;15.70;81.50;;;16.39;47.81;99502.50;4986827;28;124533;-72
2022/09/21 10:24:06;;;;;;;2.67;1.77;;;15.80;81.30;;;16.43;47.61;99501.50;4980031;28;123525;-72
2022/09/21 10:27:03;;;;;;;5.93;2.40;;;15.90;80.70;;;16.49;47.50;99504.94;4984118;28;113873;-73
2022/09/21 10:29:44;;;;;;;3.17;2.00;;;15.90;80.50;;;16.59;47.30;99500.97;4979591;28;113520;-72
2022/09/21 10:32:11;;;;;;;2.97;1.60;;;16.00;80.70;;;16.67;46.89;99500.91;4973214;28;125098;-72
2022/09/21 10:34:40;;;;;;;6.00;1.70;;;16.00;80.00;;;16.76;46.36;99498.91;4970872;28;124262;-72
2022/09/21 10:37:32;;;;;;;4.67;1.60;;;16.10;79.00;;;16.84;46.00;99500.03;4978987;28;114194;-73
2022/09/21 10:39:59;;;;;;;2.90;1.63;;;16.20;78.10;;;16.90;46.08;99495.06;4980969;28;114607;-73
2022/09/21 10:42:30;;;;;;;5.13;2.57;;;16.30;78.40;;;16.97;45.60;99498.16;4985616;28;123817;-71
2022/09/21 10:45:16;;;;;;;3.03;1.60;;;16.30;77.70;;;17.06;45.34;99484.97;4972661;28;123712;-74